North Star — TC8403 — position and weather

sailwx.info

Track history (hours):
 
Tides and Currents Weather Stations Pressure Air Temp Water Temp Dewpoint Dewpoint Depression Visibility Wind Speed Wind Dir Waves Ship Positions

North Star

Last reported at 2017-Nov-16 13:28 UTC. Time now 2017-Nov-20 07:18 UTC.
Position N 36°36' E 030°34'.

Length 14 m.

Type: Passenger vessel. MMSI: 271041125.

Date/timePositionNaut miles runAvg speedWind from/ knotsBaromVisibWave heightAir tempDewpointWater temp
2017-Nov-16 13:28N 36°36' E 030°34'0 0.1
2017-Nov-16 13:00N 36°36' E 030°34'1 1.6
2017-Nov-16 12:26N 36°36' E 030°35'0 0.5
2017-Nov-16 11:58N 36°36' E 030°35'0 0.0
2017-Nov-16 11:25N 36°36' E 030°35'0 0.0
2017-Nov-16 10:55N 36°36' E 030°35'0 0.0
2017-Nov-16 10:25N 36°36' E 030°35'0 0.5
2017-Nov-16 09:59N 36°36' E 030°35'0 0.5
2017-Nov-16 09:25N 36°36' E 030°35'1 0.0
2017-Nov-15 12:50N 36°36' E 030°34'1 2.5
2017-Nov-15 12:23N 36°35' E 030°36'0 0.1
2017-Nov-15 11:48N 36°35' E 030°36'1 0.8
2017-Nov-15 10:32N 36°34' E 030°35'0 7.0
2017-Nov-15 10:29N 36°34' E 030°35'3 1.8
2017-Nov-15 09:04N 36°32' E 030°34'1 6.6
2017-Nov-15 08:57N 36°33' E 030°34'1 1.3
2017-Nov-15 08:30N 36°33' E 030°35'3 6.2
2017-Nov-15 07:59N 36°36' E 030°35'  
2017-Nov-11 12:58N 36°36' E 030°34'3 4.0
2017-Nov-11 12:12N 36°33' E 030°35'1 6.8
2017-Nov-11 12:00N 36°32' E 030°34'2 0.5
2017-Nov-11 07:12N 36°29' E 030°34'3 8.0
2017-Nov-11 06:47N 36°32' E 030°35'4 7.4
2017-Nov-11 06:18N 36°36' E 030°35'1 1.7
2017-Nov-11 05:54N 36°36' E 030°35'0 0.3
2017-Nov-11 05:30N 36°36' E 030°34'0 0.0
2017-Nov-10 12:49N 36°36' E 030°34'1 1.3
2017-Nov-10 12:09N 36°36' E 030°36'0 0.3
2017-Nov-10 11:56N 36°36' E 030°36'1 0.2
2017-Nov-10 07:13N 36°36' E 030°34'0 0.0
2017-Nov-10 06:49N 36°36' E 030°34'0 0.0
2017-Nov-10 06:13N 36°36' E 030°34'0 0.0
2017-Nov-10 05:49N 36°36' E 030°34'0 0.0
2017-Nov-10 05:13N 36°36' E 030°34'0 0.0
2017-Nov-08 14:20N 36°36' E 030°34'3 5.3
2017-Nov-08 13:44N 36°33' E 030°35'1 0.2
2017-Nov-08 06:20N 36°32' E 030°34'4 7.1
2017-Nov-08 05:43N 36°36' E 030°35'1 1.3
2017-Nov-08 05:16N 36°36' E 030°34'0 0.0
2017-Nov-08 04:52N 36°36' E 030°34'0 0.0
2017-Nov-08 04:28N 36°36' E 030°34'0 0.0
2017-Nov-07 14:01N 36°36' E 030°34'0 1.5
2017-Nov-07 13:58N 36°36' E 030°34'3 5.0
2017-Nov-07 13:22N 36°33' E 030°35'0 0.1
2017-Nov-07 08:31N 36°33' E 030°34'0 7.2
2017-Nov-07 08:30N 36°33' E 030°35'3 6.6
2017-Nov-07 08:00N 36°36' E 030°35'  
Track history (hours):
 
Tides and Currents Weather Stations Pressure Air Temp Water Temp Dewpoint Dewpoint Depression Visibility Wind Speed Wind Dir Waves Ship Positions

North Star

Last reported at 2017-Nov-16 13:28 UTC. Time now 2017-Nov-20 07:18 UTC.
Position N 36°36' E 030°34'.

Length 14 m.

Type: Passenger vessel. MMSI: 271041125.

Date/timePositionNaut miles runAvg speedWind from/ knotsBaromVisibWave heightAir tempDewpointWater temp
2017-Nov-16 13:28N 36°36' E 030°34'0 0.1
2017-Nov-16 13:00N 36°36' E 030°34'1 1.6
2017-Nov-16 12:26N 36°36' E 030°35'0 0.5
2017-Nov-16 11:58N 36°36' E 030°35'0 0.0
2017-Nov-16 11:25N 36°36' E 030°35'0 0.0
2017-Nov-16 10:55N 36°36' E 030°35'0 0.0
2017-Nov-16 10:25N 36°36' E 030°35'0 0.5
2017-Nov-16 09:59N 36°36' E 030°35'0 0.5
2017-Nov-16 09:25N 36°36' E 030°35'1 0.0
2017-Nov-15 12:50N 36°36' E 030°34'1 2.5
2017-Nov-15 12:23N 36°35' E 030°36'0 0.1
2017-Nov-15 11:48N 36°35' E 030°36'1 0.8
2017-Nov-15 10:32N 36°34' E 030°35'0 7.0
2017-Nov-15 10:29N 36°34' E 030°35'3 1.8
2017-Nov-15 09:04N 36°32' E 030°34'1 6.6
2017-Nov-15 08:57N 36°33' E 030°34'1 1.3
2017-Nov-15 08:30N 36°33' E 030°35'3 6.2
2017-Nov-15 07:59N 36°36' E 030°35'  
2017-Nov-11 12:58N 36°36' E 030°34'3 4.0
2017-Nov-11 12:12N 36°33' E 030°35'1 6.8
2017-Nov-11 12:00N 36°32' E 030°34'2 0.5
2017-Nov-11 07:12N 36°29' E 030°34'3 8.0
2017-Nov-11 06:47N 36°32' E 030°35'4 7.4
2017-Nov-11 06:18N 36°36' E 030°35'1 1.7
2017-Nov-11 05:54N 36°36' E 030°35'0 0.3
2017-Nov-11 05:30N 36°36' E 030°34'0 0.0
2017-Nov-10 12:49N 36°36' E 030°34'1 1.3
2017-Nov-10 12:09N 36°36' E 030°36'0 0.3
2017-Nov-10 11:56N 36°36' E 030°36'1 0.2
2017-Nov-10 07:13N 36°36' E 030°34'0 0.0
2017-Nov-10 06:49N 36°36' E 030°34'0 0.0
2017-Nov-10 06:13N 36°36' E 030°34'0 0.0
2017-Nov-10 05:49N 36°36' E 030°34'0 0.0
2017-Nov-10 05:13N 36°36' E 030°34'0 0.0
2017-Nov-08 14:20N 36°36' E 030°34'3 5.3
2017-Nov-08 13:44N 36°33' E 030°35'1 0.2
2017-Nov-08 06:20N 36°32' E 030°34'4 7.1
2017-Nov-08 05:43N 36°36' E 030°35'1 1.3
2017-Nov-08 05:16N 36°36' E 030°34'0 0.0
2017-Nov-08 04:52N 36°36' E 030°34'0 0.0
2017-Nov-08 04:28N 36°36' E 030°34'0 0.0
2017-Nov-07 14:01N 36°36' E 030°34'0 1.5
2017-Nov-07 13:58N 36°36' E 030°34'3 5.0
2017-Nov-07 13:22N 36°33' E 030°35'0 0.1
2017-Nov-07 08:31N 36°33' E 030°34'0 7.2
2017-Nov-07 08:30N 36°33' E 030°35'3 6.6
2017-Nov-07 08:00N 36°36' E 030°35'  

Dump ship's entire track history